New Hope, Indiana
Current Conditions -  °F | °C
As of 4:53 PM on Saturday 25 Oct 2014 (Local Time) from KBMG Reporting Station
Clear Clear  
Wind Chill: 76°   Ceiling: Unl
Heat Index: 76°   Visibility: 10mi
Dew Point: 50°   Wind: 8mph
Humidity: 40%   Direction: 260°W
Pressure: 29.97"   Gusts: NA
Location:  39.3008°N, 86.8112°W
Report Text: KBMG 252053Z 26007KT 230V300 10SM CLR 24/10 A2997 RMK AO2 SLP142 T02440100 55002
Loading
Personal Weather Stations






























Interactive Weather Map
Tropical Storm Tracking
New forecast layout! Learn more

10-Day Weather Forecast

Advertisements
Track Severe Weather on mobile